Friday, October 20, 2017, 9:24 PM EDT
Back to Local

KLBE, Latrobe / Westmorland

Location: Latrobe, PA, United States Lat: 40.283
Local Time: 9:24 PM EDT ( 1:24 GMT) Lon: -79.4
Time Zone: US/Eastern Elev: 1184 ft

Show me the last for .
Show Coded

Time T Td Feel RH Dir Speed Gust Alt SLP Vis Weather Sky Remarks
2017-10-20 20:45 50 43 - 76 - Calm - 30.25 - 10 CLR None
2017-10-20 19:45 55 41 - 58 - Calm - 30.26 - 10 CLR None
2017-10-20 18:45 61 37 - 41 - Calm - 30.25 - 10 CLR None
2017-10-20 17:45 68 32 - 26 - Calm - 30.25 - 10 CLR None
2017-10-20 16:45 68 32 - 26 Variable 3 - 30.25 - 10 SCT150 None
2017-10-20 15:45 68 32 - 26 300° 3 - 30.26 - 10 SCT150 None
2017-10-20 14:48 68 32 - 26 - Calm - 30.27 - 10 CLR None
2017-10-20 13:48 66 34 - 29 - Calm - 30.29 - 10 CLR None
2017-10-20 12:48 66 37 - 34 - Calm - 30.31 - 10 CLR None
2017-10-20 11:50 63 45 - 51 Variable 6 - 30.32 - 15 CLR None
2017-10-20 10:59 59 45 - 58 - Calm - 30.32 - 15 CLR None
2017-10-20 09:58 57 48 - 71 230° 6 - 30.33 - 10 CLR None
2017-10-20 08:45 50 48 47 93 230° 7 - 30.31 - 10 CLR None
2017-10-20 07:45 46 45 43 93 230° 7 - 30.29 - 10 CLR None
2017-10-20 06:45 48 45 46 87 230° 6 - 30.26 - 10 CLR None
2017-10-20 05:55 48 45 - 87 - Calm - 30.25 - 10 CLR None
2017-10-20 05:35 50 45 48 81 200° 6 - 30.24 - 10 CLR None
2017-10-20 05:15 50 45 48 81 210° 6 - 30.24 - 10 CLR None
2017-10-20 04:55 50 45 47 81 220° 7 - 30.23 - 10 CLR None
2017-10-20 04:35 50 45 47 81 220° 8 - 30.22 - 10 CLR None
2017-10-20 04:15 50 45 48 81 210° 6 - 30.22 - 10 CLR None
2017-10-20 03:55 52 45 - 76 220° 7 - 30.22 - 10 CLR None
2017-10-20 03:35 54 45 - 71 210° 9 - 30.21 - 10 CLR None
2017-10-20 03:15 52 45 - 76 210° 9 - 30.21 - 10 CLR None
2017-10-20 02:55 52 45 - 76 210° 9 - 30.21 - 10 CLR None
2017-10-20 02:35 52 45 - 76 210° 9 - 30.21 - 10 CLR None
2017-10-20 02:15 50 45 47 81 210° 8 - 30.21 - 10 CLR None
2017-10-20 01:55 52 45 - 76 220° 8 - 30.21 - 10 CLR None
2017-10-20 01:35 54 45 - 71 210° 8 - 30.21 - 10 CLR None
2017-10-20 01:15 55 45 - 66 210° 10 - 30.21 - 10 CLR None
2017-10-20 00:55 55 45 - 66 210° 10 - 30.21 - 10 CLR None
2017-10-20 00:35 57 45 - 62 200° 12 - 30.20 - 10 CLR None
2017-10-20 00:15 55 45 - 66 200° 13 - 30.20 - 10 CLR None
2017-10-19 23:55 55 45 - 66 210° 9 - 30.21 - 10 CLR None
2017-10-19 23:35 54 45 - 71 210° 10 - 30.20 - 10 CLR None
2017-10-19 23:15 55 45 - 66 210° 10 - 30.20 - 10 CLR None
2017-10-19 22:55 54 45 - 71 210° 9 - 30.20 - 10 VCTS CLR None
2017-10-19 22:35 55 45 - 66 200° 7 - 30.20 - 10 CLR None
2017-10-19 22:15 54 45 - 71 200° 7 - 30.20 - 10 CLR None
2017-10-19 21:45 57 45 - 62 210° 7 - 30.20 - 10 CLR None

Support USWX by starting your Amazon purchase here.